sensor_id;sensor_type;location;lat;lon;timestamp;temperature;humidity
31309;DHT22;17936;52.446;10.840;2022-09-02T00:01:47;13.10;81.00
31309;DHT22;17936;52.446;10.840;2022-09-02T00:04:21;12.60;92.60
31309;DHT22;17936;52.446;10.840;2022-09-02T00:06:49;12.60;95.50
31309;DHT22;17936;52.446;10.840;2022-09-02T00:09:17;12.70;94.50
31309;DHT22;17936;52.446;10.840;2022-09-02T00:11:43;12.50;96.40
31309;DHT22;17936;52.446;10.840;2022-09-02T00:14:16;12.60;96.90
31309;DHT22;17936;52.446;10.840;2022-09-02T00:16:42;12.90;90.30
31309;DHT22;17936;52.446;10.840;2022-09-02T00:19:22;12.80;91.40
31309;DHT22;17936;52.446;10.840;2022-09-02T00:21:49;12.80;91.00
31309;DHT22;17936;52.446;10.840;2022-09-02T00:24:14;12.70;94.70
31309;DHT22;17936;52.446;10.840;2022-09-02T00:26:41;12.70;94.10
31309;DHT22;17936;52.446;10.840;2022-09-02T00:29:06;12.80;92.30
31309;DHT22;17936;52.446;10.840;2022-09-02T00:31:32;12.60;93.90
31309;DHT22;17936;52.446;10.840;2022-09-02T00:33:58;12.60;94.10
31309;DHT22;17936;52.446;10.840;2022-09-02T00:36:24;12.60;95.30
31309;DHT22;17936;52.446;10.840;2022-09-02T00:38:51;12.60;94.30
31309;DHT22;17936;52.446;10.840;2022-09-02T00:41:19;12.20;99.90
31309;DHT22;17936;52.446;10.840;2022-09-02T00:43:52;11.90;99.90
31309;DHT22;17936;52.446;10.840;2022-09-02T00:46:21;12.40;99.90
31309;DHT22;17936;52.446;10.840;2022-09-02T00:51:28;12.50;97.40
31309;DHT22;17936;52.446;10.840;2022-09-02T00:53:54;12.20;99.10
31309;DHT22;17936;52.446;10.840;2022-09-02T00:56:24;12.20;99.90
31309;DHT22;17936;52.446;10.840;2022-09-02T00:58:51;12.00;99.90
31309;DHT22;17936;52.446;10.840;2022-09-02T01:01:17;11.70;99.90
31309;DHT22;17936;52.446;10.840;2022-09-02T01:03:43;11.70;99.90
31309;DHT22;17936;52.446;10.840;2022-09-02T01:06:11;11.40;99.90
31309;DHT22;17936;52.446;10.840;2022-09-02T01:08:44;11.40;99.90
31309;DHT22;17936;52.446;10.840;2022-09-02T01:11:11;11.40;99.90
31309;DHT22;17936;52.446;10.840;2022-09-02T01:13:39;11.50;99.90
31309;DHT22;17936;52.446;10.840;2022-09-02T01:16:16;11.50;99.90
31309;DHT22;17936;52.446;10.840;2022-09-02T01:18:49;11.60;99.90
31309;DHT22;17936;52.446;10.840;2022-09-02T01:21:14;11.60;99.90
31309;DHT22;17936;52.446;10.840;2022-09-02T01:23:40;11.90;99.90
31309;DHT22;17936;52.446;10.840;2022-09-02T01:26:05;12.10;99.90
31309;DHT22;17936;52.446;10.840;2022-09-02T01:28:33;12.00;99.90
31309;DHT22;17936;52.446;10.840;2022-09-02T01:30:59;12.00;99.90
31309;DHT22;17936;52.446;10.840;2022-09-02T01:33:25;12.10;99.90
31309;DHT22;17936;52.446;10.840;2022-09-02T01:35:51;12.10;99.90
31309;DHT22;17936;52.446;10.840;2022-09-02T01:38:18;12.10;99.90
31309;DHT22;17936;52.446;10.840;2022-09-02T01:40:44;12.20;99.90
31309;DHT22;17936;52.446;10.840;2022-09-02T01:43:15;12.10;99.90
31309;DHT22;17936;52.446;10.840;2022-09-02T01:45:43;12.10;99.90
31309;DHT22;17936;52.446;10.840;2022-09-02T01:48:10;11.70;99.90
31309;DHT22;17936;52.446;10.840;2022-09-02T01:50:38;11.80;99.90
31309;DHT22;17936;52.446;10.840;2022-09-02T01:53:04;11.70;99.90
31309;DHT22;17936;52.446;10.840;2022-09-02T01:55:31;11.50;99.90
31309;DHT22;17936;52.446;10.840;2022-09-02T01:57:57;11.60;99.90
31309;DHT22;17936;52.446;10.840;2022-09-02T02:00:23;11.80;99.90
31309;DHT22;17936;52.446;10.840;2022-09-02T02:02:49;11.70;99.90
31309;DHT22;17936;52.446;10.840;2022-09-02T02:05:15;11.70;99.90
31309;DHT22;17936;52.446;10.840;2022-09-02T02:07:42;11.80;99.90
31309;DHT22;17936;52.446;10.840;2022-09-02T02:10:10;11.40;99.90
31309;DHT22;17936;52.446;10.840;2022-09-02T02:12:37;11.50;99.90
31309;DHT22;17936;52.446;10.840;2022-09-02T02:15:08;11.30;99.90
31309;DHT22;17936;52.446;10.840;2022-09-02T02:17:34;11.50;99.90
31309;DHT22;17936;52.446;10.840;2022-09-02T02:20:00;11.70;99.90
31309;DHT22;17936;52.446;10.840;2022-09-02T02:22:26;11.50;99.90
31309;DHT22;17936;52.446;10.840;2022-09-02T02:24:53;11.50;99.90
31309;DHT22;17936;52.446;10.840;2022-09-02T02:27:19;11.20;99.90
31309;DHT22;17936;52.446;10.840;2022-09-02T02:29:45;11.00;99.90
31309;DHT22;17936;52.446;10.840;2022-09-02T02:32:10;11.30;99.90
31309;DHT22;17936;52.446;10.840;2022-09-02T02:34:36;11.30;99.90
31309;DHT22;17936;52.446;10.840;2022-09-02T02:37:01;11.40;99.90
31309;DHT22;17936;52.446;10.840;2022-09-02T02:39:27;11.40;99.90
31309;DHT22;17936;52.446;10.840;2022-09-02T02:41:53;11.50;99.90
31309;DHT22;17936;52.446;10.840;2022-09-02T02:44:19;11.50;99.90
31309;DHT22;17936;52.446;10.840;2022-09-02T02:46:44;10.90;99.90
31309;DHT22;17936;52.446;10.840;2022-09-02T02:49:10;10.60;99.90
31309;DHT22;17936;52.446;10.840;2022-09-02T02:51:36;10.60;99.90
31309;DHT22;17936;52.446;10.840;2022-09-02T02:54:02;10.90;99.90
31309;DHT22;17936;52.446;10.840;2022-09-02T02:56:29;10.90;99.90
31309;DHT22;17936;52.446;10.840;2022-09-02T02:58:56;10.80;99.90
31309;DHT22;17936;52.446;10.840;2022-09-02T03:01:24;10.60;99.90
31309;DHT22;17936;52.446;10.840;2022-09-02T03:03:49;10.70;99.90
31309;DHT22;17936;52.446;10.840;2022-09-02T03:06:17;10.60;99.90
31309;DHT22;17936;52.446;10.840;2022-09-02T03:08:42;10.30;99.90
31309;DHT22;17936;52.446;10.840;2022-09-02T03:11:08;10.40;99.90
31309;DHT22;17936;52.446;10.840;2022-09-02T03:13:34;10.30;99.90
31309;DHT22;17936;52.446;10.840;2022-09-02T03:16:00;10.30;99.90
31309;DHT22;17936;52.446;10.840;2022-09-02T03:18:26;10.60;99.90
31309;DHT22;17936;52.446;10.840;2022-09-02T03:20:51;10.50;99.90
31309;DHT22;17936;52.446;10.840;2022-09-02T03:23:17;10.60;99.90
31309;DHT22;17936;52.446;10.840;2022-09-02T03:25:44;10.70;99.90
31309;DHT22;17936;52.446;10.840;2022-09-02T03:28:10;10.80;99.90
31309;DHT22;17936;52.446;10.840;2022-09-02T03:30:38;10.70;99.90
31309;DHT22;17936;52.446;10.840;2022-09-02T03:33:03;10.50;99.90
31309;DHT22;17936;52.446;10.840;2022-09-02T03:35:36;10.60;99.90
31309;DHT22;17936;52.446;10.840;2022-09-02T03:38:02;10.60;99.90
31309;DHT22;17936;52.446;10.840;2022-09-02T03:40:28;10.80;99.90
31309;DHT22;17936;52.446;10.840;2022-09-02T03:42:54;10.70;99.90
31309;DHT22;17936;52.446;10.840;2022-09-02T03:45:21;10.80;99.90
31309;DHT22;17936;52.446;10.840;2022-09-02T03:47:48;10.90;99.90
31309;DHT22;17936;52.446;10.840;2022-09-02T03:50:21;10.80;99.90
31309;DHT22;17936;52.446;10.840;2022-09-02T03:52:48;10.70;99.90
31309;DHT22;17936;52.446;10.840;2022-09-02T03:55:14;10.60;99.90
31309;DHT22;17936;52.446;10.840;2022-09-02T03:57:40;10.70;99.90
31309;DHT22;17936;52.446;10.840;2022-09-02T04:00:07;10.70;99.90
31309;DHT22;17936;52.446;10.840;2022-09-02T04:02:33;10.70;99.90
31309;DHT22;17936;52.446;10.840;2022-09-02T04:04:59;10.70;99.90
31309;DHT22;17936;52.446;10.840;2022-09-02T04:07:25;10.60;99.90
31309;DHT22;17936;52.446;10.840;2022-09-02T04:09:50;10.50;99.90
31309;DHT22;17936;52.446;10.840;2022-09-02T04:12:16;10.30;99.90
31309;DHT22;17936;52.446;10.840;2022-09-02T04:14:41;10.10;99.90
31309;DHT22;17936;52.446;10.840;2022-09-02T04:17:07;10.10;99.90
31309;DHT22;17936;52.446;10.840;2022-09-02T04:19:33;10.00;99.90
31309;DHT22;17936;52.446;10.840;2022-09-02T04:21:58;9.90;99.90
31309;DHT22;17936;52.446;10.840;2022-09-02T04:24:24;10.00;99.90
31309;DHT22;17936;52.446;10.840;2022-09-02T04:26:49;10.10;99.90
31309;DHT22;17936;52.446;10.840;2022-09-02T04:29:15;10.00;99.90
31309;DHT22;17936;52.446;10.840;2022-09-02T04:31:41;10.10;99.90
31309;DHT22;17936;52.446;10.840;2022-09-02T04:34:06;10.10;99.90
31309;DHT22;17936;52.446;10.840;2022-09-02T04:36:32;10.20;99.90
31309;DHT22;17936;52.446;10.840;2022-09-02T04:38:58;10.10;99.90
31309;DHT22;17936;52.446;10.840;2022-09-02T04:41:26;10.10;99.90
31309;DHT22;17936;52.446;10.840;2022-09-02T04:43:54;10.20;99.90
31309;DHT22;17936;52.446;10.840;2022-09-02T04:46:20;10.20;99.90
31309;DHT22;17936;52.446;10.840;2022-09-02T04:48:46;10.20;99.90
31309;DHT22;17936;52.446;10.840;2022-09-02T04:51:15;10.10;99.90
31309;DHT22;17936;52.446;10.840;2022-09-02T04:53:41;10.00;99.90
31309;DHT22;17936;52.446;10.840;2022-09-02T04:56:10;10.20;99.90
31309;DHT22;17936;52.446;10.840;2022-09-02T04:58:37;10.30;99.90
31309;DHT22;17936;52.446;10.840;2022-09-02T05:01:06;10.40;99.90
31309;DHT22;17936;52.446;10.840;2022-09-02T05:03:32;10.40;99.90
31309;DHT22;17936;52.446;10.840;2022-09-02T05:06:05;10.40;99.90
31309;DHT22;17936;52.446;10.840;2022-09-02T05:08:32;10.20;99.90
31309;DHT22;17936;52.446;10.840;2022-09-02T05:11:04;10.10;99.90
31309;DHT22;17936;52.446;10.840;2022-09-02T05:13:29;10.10;99.90
31309;DHT22;17936;52.446;10.840;2022-09-02T05:15:55;10.10;99.90
31309;DHT22;17936;52.446;10.840;2022-09-02T05:18:20;10.30;99.90
31309;DHT22;17936;52.446;10.840;2022-09-02T05:20:46;10.40;99.90
31309;DHT22;17936;52.446;10.840;2022-09-02T05:23:12;10.60;99.90
31309;DHT22;17936;52.446;10.840;2022-09-02T05:25:38;10.70;99.90
31309;DHT22;17936;52.446;10.840;2022-09-02T05:28:04;10.70;99.90
31309;DHT22;17936;52.446;10.840;2022-09-02T05:30:30;10.70;99.90
31309;DHT22;17936;52.446;10.840;2022-09-02T05:32:56;10.60;99.90
31309;DHT22;17936;52.446;10.840;2022-09-02T05:35:22;10.70;99.90
31309;DHT22;17936;52.446;10.840;2022-09-02T05:37:47;10.70;99.90
31309;DHT22;17936;52.446;10.840;2022-09-02T05:40:13;10.90;99.90
31309;DHT22;17936;52.446;10.840;2022-09-02T05:42:38;11.00;99.90
31309;DHT22;17936;52.446;10.840;2022-09-02T05:45:05;11.00;99.90
31309;DHT22;17936;52.446;10.840;2022-09-02T05:47:33;11.10;99.90
31309;DHT22;17936;52.446;10.840;2022-09-02T05:49:58;11.10;99.90
31309;DHT22;17936;52.446;10.840;2022-09-02T05:52:26;11.30;99.90
31309;DHT22;17936;52.446;10.840;2022-09-02T05:54:52;11.60;99.90
31309;DHT22;17936;52.446;10.840;2022-09-02T05:57:19;11.70;99.90
31309;DHT22;17936;52.446;10.840;2022-09-02T05:59:45;11.60;99.90
31309;DHT22;17936;52.446;10.840;2022-09-02T06:02:13;11.80;99.90
31309;DHT22;17936;52.446;10.840;2022-09-02T06:04:42;12.00;99.90
31309;DHT22;17936;52.446;10.840;2022-09-02T06:07:09;12.10;99.90
31309;DHT22;17936;52.446;10.840;2022-09-02T06:09:34;12.40;99.90
31309;DHT22;17936;52.446;10.840;2022-09-02T06:12:00;12.50;99.90
31309;DHT22;17936;52.446;10.840;2022-09-02T06:14:26;12.50;99.90
31309;DHT22;17936;52.446;10.840;2022-09-02T06:16:54;13.00;99.90
31309;DHT22;17936;52.446;10.840;2022-09-02T06:19:21;13.20;99.90
31309;DHT22;17936;52.446;10.840;2022-09-02T06:21:47;13.00;99.90
31309;DHT22;17936;52.446;10.840;2022-09-02T06:24:13;13.20;99.90
31309;DHT22;17936;52.446;10.840;2022-09-02T06:26:40;13.50;99.90
31309;DHT22;17936;52.446;10.840;2022-09-02T06:29:05;13.50;99.90
31309;DHT22;17936;52.446;10.840;2022-09-02T06:31:31;13.40;99.90
31309;DHT22;17936;52.446;10.840;2022-09-02T06:33:58;13.50;99.90
31309;DHT22;17936;52.446;10.840;2022-09-02T06:36:26;13.50;99.90
31309;DHT22;17936;52.446;10.840;2022-09-02T06:38:53;13.70;99.90
31309;DHT22;17936;52.446;10.840;2022-09-02T06:41:22;13.90;99.70
31309;DHT22;17936;52.446;10.840;2022-09-02T06:43:49;14.20;96.30
31309;DHT22;17936;52.446;10.840;2022-09-02T06:46:20;14.50;93.10
31309;DHT22;17936;52.446;10.840;2022-09-02T06:48:46;14.60;93.10
31309;DHT22;17936;52.446;10.840;2022-09-02T06:51:26;14.90;92.00
31309;DHT22;17936;52.446;10.840;2022-09-02T06:53:52;14.90;91.50
31309;DHT22;17936;52.446;10.840;2022-09-02T06:56:17;15.00;76.80
31309;DHT22;17936;52.446;10.840;2022-09-02T06:58:43;15.00;76.40
31309;DHT22;17936;52.446;10.840;2022-09-02T07:01:10;15.00;69.00
31309;DHT22;17936;52.446;10.840;2022-09-02T07:03:41;15.50;65.00
31309;DHT22;17936;52.446;10.840;2022-09-02T07:06:25;15.50;56.40
31309;DHT22;17936;52.446;10.840;2022-09-02T07:08:51;16.10;48.70
31309;DHT22;17936;52.446;10.840;2022-09-02T07:11:21;15.50;48.30
31309;DHT22;17936;52.446;10.840;2022-09-02T07:13:48;16.00;44.70
31309;DHT22;17936;52.446;10.840;2022-09-02T07:16:15;15.50;47.60
31309;DHT22;17936;52.446;10.840;2022-09-02T07:18:41;15.70;53.50
31309;DHT22;17936;52.446;10.840;2022-09-02T07:21:09;16.40;45.60
31309;DHT22;17936;52.446;10.840;2022-09-02T07:23:35;16.50;99.90
31309;DHT22;17936;52.446;10.840;2022-09-02T07:26:01;16.10;99.90
31309;DHT22;17936;52.446;10.840;2022-09-02T07:28:26;16.70;99.90
31309;DHT22;17936;52.446;10.840;2022-09-02T07:30:52;16.60;99.90
31309;DHT22;17936;52.446;10.840;2022-09-02T07:33:20;16.60;99.90
31309;DHT22;17936;52.446;10.840;2022-09-02T07:35:46;16.70;99.90
31309;DHT22;17936;52.446;10.840;2022-09-02T07:38:12;17.20;99.90
31309;DHT22;17936;52.446;10.840;2022-09-02T07:40:40;17.80;99.90
31309;DHT22;17936;52.446;10.840;2022-09-02T07:43:08;17.80;99.90
31309;DHT22;17936;52.446;10.840;2022-09-02T07:45:36;17.70;99.90
31309;DHT22;17936;52.446;10.840;2022-09-02T07:48:03;17.40;99.90
31309;DHT22;17936;52.446;10.840;2022-09-02T07:50:32;17.70;99.90
31309;DHT22;17936;52.446;10.840;2022-09-02T07:52:58;17.80;99.90
31309;DHT22;17936;52.446;10.840;2022-09-02T07:55:24;18.10;99.90
31309;DHT22;17936;52.446;10.840;2022-09-02T07:57:51;18.20;99.90
31309;DHT22;17936;52.446;10.840;2022-09-02T08:00:19;18.20;99.90
31309;DHT22;17936;52.446;10.840;2022-09-02T08:02:46;18.90;99.90
31309;DHT22;17936;52.446;10.840;2022-09-02T08:05:12;18.90;99.90
31309;DHT22;17936;52.446;10.840;2022-09-02T08:07:38;19.10;99.90
31309;DHT22;17936;52.446;10.840;2022-09-02T08:10:05;18.60;99.90
31309;DHT22;17936;52.446;10.840;2022-09-02T08:12:32;18.70;99.90
31309;DHT22;17936;52.446;10.840;2022-09-02T08:14:58;19.00;99.90
31309;DHT22;17936;52.446;10.840;2022-09-02T08:17:23;18.70;99.90
31309;DHT22;17936;52.446;10.840;2022-09-02T08:19:49;18.70;99.90
31309;DHT22;17936;52.446;10.840;2022-09-02T08:22:14;19.20;99.90
31309;DHT22;17936;52.446;10.840;2022-09-02T08:24:40;19.00;99.90
31309;DHT22;17936;52.446;10.840;2022-09-02T08:27:05;19.20;99.90
31309;DHT22;17936;52.446;10.840;2022-09-02T08:29:31;19.20;99.90
31309;DHT22;17936;52.446;10.840;2022-09-02T08:31:56;19.30;99.90
31309;DHT22;17936;52.446;10.840;2022-09-02T08:34:22;19.70;99.90
31309;DHT22;17936;52.446;10.840;2022-09-02T08:36:47;19.60;99.90
31309;DHT22;17936;52.446;10.840;2022-09-02T08:39:13;19.20;99.90
31309;DHT22;17936;52.446;10.840;2022-09-02T08:44:20;19.70;99.90
31309;DHT22;17936;52.446;10.840;2022-09-02T08:46:49;19.80;99.90
31309;DHT22;17936;52.446;10.840;2022-09-02T08:49:24;19.60;99.90
31309;DHT22;17936;52.446;10.840;2022-09-02T08:51:56;19.60;99.90
31309;DHT22;17936;52.446;10.840;2022-09-02T08:54:43;20.10;99.90
31309;DHT22;17936;52.446;10.840;2022-09-02T08:57:10;20.30;99.90
31309;DHT22;17936;52.446;10.840;2022-09-02T08:59:37;20.30;99.90
31309;DHT22;17936;52.446;10.840;2022-09-02T09:02:13;20.80;99.90
31309;DHT22;17936;52.446;10.840;2022-09-02T09:10:42;20.20;99.90
31309;DHT22;17936;52.446;10.840;2022-09-02T09:18:59;21.30;99.90
31309;DHT22;17936;52.446;10.840;2022-09-02T09:21:26;21.40;99.90
31309;DHT22;17936;52.446;10.840;2022-09-02T09:23:54;21.80;99.90
31309;DHT22;17936;52.446;10.840;2022-09-02T09:26:27;21.50;99.90
31309;DHT22;17936;52.446;10.840;2022-09-02T09:28:54;21.30;99.90
31309;DHT22;17936;52.446;10.840;2022-09-02T09:31:23;21.40;99.90
31309;DHT22;17936;52.446;10.840;2022-09-02T09:36:48;21.70;99.90
31309;DHT22;17936;52.446;10.840;2022-09-02T09:39:19;22.40;99.90
31309;DHT22;17936;52.446;10.840;2022-09-02T09:41:46;22.00;99.90
31309;DHT22;17936;52.446;10.840;2022-09-02T09:44:38;21.80;99.90
31309;DHT22;17936;52.446;10.840;2022-09-02T09:47:09;21.90;99.90
31309;DHT22;17936;52.446;10.840;2022-09-02T09:49:38;22.00;99.90
31309;DHT22;17936;52.446;10.840;2022-09-02T09:52:05;21.90;99.90
31309;DHT22;17936;52.446;10.840;2022-09-02T09:54:31;22.10;99.90
31309;DHT22;17936;52.446;10.840;2022-09-02T09:57:13;22.40;99.90
31309;DHT22;17936;52.446;10.840;2022-09-02T09:59:45;22.40;99.90
31309;DHT22;17936;52.446;10.840;2022-09-02T10:02:23;22.40;99.80
31309;DHT22;17936;52.446;10.840;2022-09-02T10:04:51;22.50;98.60
31309;DHT22;17936;52.446;10.840;2022-09-02T10:07:38;22.60;99.20
31309;DHT22;17936;52.446;10.840;2022-09-02T10:10:15;22.20;98.90
31309;DHT22;17936;52.446;10.840;2022-09-02T10:12:41;22.40;98.20
31309;DHT22;17936;52.446;10.840;2022-09-02T10:15:07;22.80;97.00
31309;DHT22;17936;52.446;10.840;2022-09-02T10:17:49;22.40;96.60
31309;DHT22;17936;52.446;10.840;2022-09-02T10:23:43;22.80;96.80
31309;DHT22;17936;52.446;10.840;2022-09-02T10:26:42;23.10;95.70
31309;DHT22;17936;52.446;10.840;2022-09-02T10:29:41;22.60;96.10
31309;DHT22;17936;52.446;10.840;2022-09-02T10:40:42;22.50;95.00
31309;DHT22;17936;52.446;10.840;2022-09-02T10:43:50;22.50;94.20
31309;DHT22;17936;52.446;10.840;2022-09-02T10:46:21;22.60;95.70
31309;DHT22;17936;52.446;10.840;2022-09-02T10:48:52;22.70;94.00
31309;DHT22;17936;52.446;10.840;2022-09-02T10:51:38;22.60;94.00
31309;DHT22;17936;52.446;10.840;2022-09-02T10:57:17;23.40;93.20
31309;DHT22;17936;52.446;10.840;2022-09-02T11:00:09;23.60;93.00
31309;DHT22;17936;52.446;10.840;2022-09-02T11:02:44;23.90;93.30
31309;DHT22;17936;52.446;10.840;2022-09-02T11:05:17;23.50;92.40
31309;DHT22;17936;52.446;10.840;2022-09-02T11:07:51;23.40;93.20
31309;DHT22;17936;52.446;10.840;2022-09-02T11:10:42;23.10;93.20
31309;DHT22;17936;52.446;10.840;2022-09-02T11:13:32;22.70;93.60
31309;DHT22;17936;52.446;10.840;2022-09-02T11:19:09;23.20;93.50
31309;DHT22;17936;52.446;10.840;2022-09-02T11:24:18;23.60;91.30
31309;DHT22;17936;52.446;10.840;2022-09-02T11:26:57;24.30;90.80
31309;DHT22;17936;52.446;10.840;2022-09-02T11:29:38;23.70;90.00
31309;DHT22;17936;52.446;10.840;2022-09-02T11:32:12;24.30;90.80
31309;DHT22;17936;52.446;10.840;2022-09-02T11:34:45;24.50;90.20
31309;DHT22;17936;52.446;10.840;2022-09-02T11:37:13;23.80;90.00
31309;DHT22;17936;52.446;10.840;2022-09-02T11:39:52;23.10;90.70
31309;DHT22;17936;52.446;10.840;2022-09-02T11:45:30;22.30;92.30
31309;DHT22;17936;52.446;10.840;2022-09-02T11:48:17;22.20;93.20
31309;DHT22;17936;52.446;10.840;2022-09-02T11:53:39;23.80;91.20
31309;DHT22;17936;52.446;10.840;2022-09-02T11:58:42;22.30;90.60
31309;DHT22;17936;52.446;10.840;2022-09-02T12:03:47;22.50;92.00
31309;DHT22;17936;52.446;10.840;2022-09-02T12:06:17;22.40;91.80
31309;DHT22;17936;52.446;10.840;2022-09-02T12:11:43;23.30;91.10
31309;DHT22;17936;52.446;10.840;2022-09-02T12:15:00;23.80;90.20
31309;DHT22;17936;52.446;10.840;2022-09-02T12:17:03;24.30;91.30
31309;DHT22;17936;52.446;10.840;2022-09-02T12:19:42;24.50;85.40
31309;DHT22;17936;52.446;10.840;2022-09-02T12:24:56;23.30;87.90
31309;DHT22;17936;52.446;10.840;2022-09-02T12:27:32;22.90;87.40
31309;DHT22;17936;52.446;10.840;2022-09-02T12:29:58;22.50;89.40
31309;DHT22;17936;52.446;10.840;2022-09-02T12:35:48;22.30;90.30
31309;DHT22;17936;52.446;10.840;2022-09-02T12:43:34;22.10;88.40
31309;DHT22;17936;52.446;10.840;2022-09-02T12:46:34;22.20;88.30
31309;DHT22;17936;52.446;10.840;2022-09-02T12:51:57;22.70;85.90
31309;DHT22;17936;52.446;10.840;2022-09-02T12:54:31;23.20;85.30
31309;DHT22;17936;52.446;10.840;2022-09-02T12:57:00;23.80;82.70
31309;DHT22;17936;52.446;10.840;2022-09-02T12:59:29;23.80;82.70
31309;DHT22;17936;52.446;10.840;2022-09-02T13:07:28;23.00;83.00
31309;DHT22;17936;52.446;10.840;2022-09-02T13:10:26;23.40;83.60
31309;DHT22;17936;52.446;10.840;2022-09-02T13:13:32;22.60;85.50
31309;DHT22;17936;52.446;10.840;2022-09-02T13:18:58;23.20;84.20
31309;DHT22;17936;52.446;10.840;2022-09-02T13:33:25;23.90;84.40
31309;DHT22;17936;52.446;10.840;2022-09-02T13:35:56;24.10;85.50
31309;DHT22;17936;52.446;10.840;2022-09-02T13:38:24;24.00;84.40
31309;DHT22;17936;52.446;10.840;2022-09-02T13:40:50;23.60;83.00
31309;DHT22;17936;52.446;10.840;2022-09-02T13:43:18;24.20;82.60
31309;DHT22;17936;52.446;10.840;2022-09-02T13:45:45;24.00;82.40
31309;DHT22;17936;52.446;10.840;2022-09-02T13:48:24;24.20;83.60
31309;DHT22;17936;52.446;10.840;2022-09-02T13:50:52;24.30;84.10
31309;DHT22;17936;52.446;10.840;2022-09-02T13:53:25;24.10;82.70
31309;DHT22;17936;52.446;10.840;2022-09-02T13:55:54;24.30;80.30
31309;DHT22;17936;52.446;10.840;2022-09-02T13:58:37;24.00;79.50
31309;DHT22;17936;52.446;10.840;2022-09-02T14:01:21;23.90;78.70
31309;DHT22;17936;52.446;10.840;2022-09-02T14:03:47;23.90;78.90
31309;DHT22;17936;52.446;10.840;2022-09-02T14:06:16;23.80;77.60
31309;DHT22;17936;52.446;10.840;2022-09-02T14:08:43;23.90;76.30
31309;DHT22;17936;52.446;10.840;2022-09-02T14:11:16;23.10;77.40
31309;DHT22;17936;52.446;10.840;2022-09-02T14:13:45;22.90;77.40
31309;DHT22;17936;52.446;10.840;2022-09-02T14:16:26;22.50;78.10
31309;DHT22;17936;52.446;10.840;2022-09-02T14:19:11;22.90;79.50
31309;DHT22;17936;52.446;10.840;2022-09-02T14:21:49;23.30;80.20
31309;DHT22;17936;52.446;10.840;2022-09-02T14:24:22;23.80;78.90
31309;DHT22;17936;52.446;10.840;2022-09-02T14:26:50;23.60;80.60
31309;DHT22;17936;52.446;10.840;2022-09-02T14:29:18;23.00;82.00
31309;DHT22;17936;52.446;10.840;2022-09-02T14:31:45;23.30;80.50
31309;DHT22;17936;52.446;10.840;2022-09-02T14:34:33;22.90;78.20
31309;DHT22;17936;52.446;10.840;2022-09-02T14:37:00;22.80;79.90
31309;DHT22;17936;52.446;10.840;2022-09-02T14:39:25;22.50;80.90
31309;DHT22;17936;52.446;10.840;2022-09-02T14:41:53;22.50;82.20
31309;DHT22;17936;52.446;10.840;2022-09-02T14:44:30;22.40;83.20
31309;DHT22;17936;52.446;10.840;2022-09-02T14:47:00;22.30;82.90
31309;DHT22;17936;52.446;10.840;2022-09-02T14:49:30;22.40;83.00
31309;DHT22;17936;52.446;10.840;2022-09-02T14:52:02;22.50;85.00
31309;DHT22;17936;52.446;10.840;2022-09-02T14:57:01;22.70;84.10
31309;DHT22;17936;52.446;10.840;2022-09-02T14:59:26;22.30;83.50
31309;DHT22;17936;52.446;10.840;2022-09-02T15:01:53;22.20;84.80
31309;DHT22;17936;52.446;10.840;2022-09-02T15:04:20;22.50;84.40
31309;DHT22;17936;52.446;10.840;2022-09-02T15:06:46;22.90;81.20
31309;DHT22;17936;52.446;10.840;2022-09-02T15:09:13;23.30;81.30
31309;DHT22;17936;52.446;10.840;2022-09-02T15:11:42;22.90;83.20
31309;DHT22;17936;52.446;10.840;2022-09-02T15:14:09;22.90;84.00
31309;DHT22;17936;52.446;10.840;2022-09-02T15:16:36;22.50;85.30
31309;DHT22;17936;52.446;10.840;2022-09-02T15:19:01;22.00;86.20
31309;DHT22;17936;52.446;10.840;2022-09-02T15:21:27;22.10;86.80
31309;DHT22;17936;52.446;10.840;2022-09-02T15:23:52;22.30;86.60
31309;DHT22;17936;52.446;10.840;2022-09-02T15:26:18;22.50;85.50
31309;DHT22;17936;52.446;10.840;2022-09-02T15:28:43;22.60;81.80
31309;DHT22;17936;52.446;10.840;2022-09-02T15:31:10;22.50;84.80
31309;DHT22;17936;52.446;10.840;2022-09-02T15:33:35;22.60;85.70
31309;DHT22;17936;52.446;10.840;2022-09-02T15:36:08;22.30;87.30
31309;DHT22;17936;52.446;10.840;2022-09-02T15:38:35;22.70;88.20
31309;DHT22;17936;52.446;10.840;2022-09-02T15:41:19;22.60;86.00
31309;DHT22;17936;52.446;10.840;2022-09-02T15:43:46;22.00;87.30
31309;DHT22;17936;52.446;10.840;2022-09-02T15:46:18;21.70;88.60
31309;DHT22;17936;52.446;10.840;2022-09-02T15:48:44;21.80;88.20
31309;DHT22;17936;52.446;10.840;2022-09-02T15:51:11;22.00;88.40
31309;DHT22;17936;52.446;10.840;2022-09-02T15:53:37;22.40;87.90
31309;DHT22;17936;52.446;10.840;2022-09-02T15:56:02;22.30;86.90
31309;DHT22;17936;52.446;10.840;2022-09-02T15:58:28;21.90;88.00
31309;DHT22;17936;52.446;10.840;2022-09-02T16:00:53;22.00;87.10
31309;DHT22;17936;52.446;10.840;2022-09-02T16:03:19;21.80;87.70
31309;DHT22;17936;52.446;10.840;2022-09-02T16:05:44;21.70;88.20
31309;DHT22;17936;52.446;10.840;2022-09-02T16:08:10;21.50;89.10
31309;DHT22;17936;52.446;10.840;2022-09-02T16:10:36;21.50;90.50
31309;DHT22;17936;52.446;10.840;2022-09-02T16:13:02;21.60;90.20
31309;DHT22;17936;52.446;10.840;2022-09-02T16:15:27;21.60;89.10
31309;DHT22;17936;52.446;10.840;2022-09-02T16:17:54;21.60;89.80
31309;DHT22;17936;52.446;10.840;2022-09-02T16:20:20;21.70;88.80
31309;DHT22;17936;52.446;10.840;2022-09-02T16:22:46;21.70;89.60
31309;DHT22;17936;52.446;10.840;2022-09-02T16:25:12;21.70;88.80
31309;DHT22;17936;52.446;10.840;2022-09-02T16:27:38;21.60;89.80
31309;DHT22;17936;52.446;10.840;2022-09-02T16:30:16;21.50;90.30
31309;DHT22;17936;52.446;10.840;2022-09-02T16:32:42;21.30;90.50
31309;DHT22;17936;52.446;10.840;2022-09-02T16:35:08;21.10;90.30
31309;DHT22;17936;52.446;10.840;2022-09-02T16:37:35;21.00;90.50
31309;DHT22;17936;52.446;10.840;2022-09-02T16:40:00;20.90;90.80
31309;DHT22;17936;52.446;10.840;2022-09-02T16:42:27;20.90;90.90
31309;DHT22;17936;52.446;10.840;2022-09-02T16:44:52;21.00;90.90
31309;DHT22;17936;52.446;10.840;2022-09-02T16:47:18;21.10;90.60
31309;DHT22;17936;52.446;10.840;2022-09-02T16:49:43;21.20;90.80
31309;DHT22;17936;52.446;10.840;2022-09-02T16:52:10;21.20;90.80
31309;DHT22;17936;52.446;10.840;2022-09-02T16:54:36;21.20;90.60
31309;DHT22;17936;52.446;10.840;2022-09-02T16:57:01;21.10;90.50
31309;DHT22;17936;52.446;10.840;2022-09-02T16:59:28;21.10;89.70